sensor_id;sensor_type;location;lat;lon;timestamp;pressure;altitude;pressure_sealevel;temperature;humidity
3428;BME280;1727;42.624;23.406;2023-04-06T00:00:42;94628.13;;;2.44;77.43
3428;BME280;1727;42.624;23.406;2023-04-06T00:03:09;94619.72;;;2.25;76.98
3428;BME280;1727;42.624;23.406;2023-04-06T00:05:36;94624.50;;;2.01;78.47
3428;BME280;1727;42.624;23.406;2023-04-06T00:08:03;94611.94;;;1.95;79.07
3428;BME280;1727;42.624;23.406;2023-04-06T00:10:30;94617.78;;;1.82;79.12
3428;BME280;1727;42.624;23.406;2023-04-06T00:12:58;94609.69;;;1.73;80.91
3428;BME280;1727;42.624;23.406;2023-04-06T00:15:25;94607.44;;;1.67;80.40
3428;BME280;1727;42.624;23.406;2023-04-06T00:17:52;94602.94;;;1.54;80.33
3428;BME280;1727;42.624;23.406;2023-04-06T00:20:19;94606.38;;;1.55;80.55
3428;BME280;1727;42.624;23.406;2023-04-06T00:22:46;94597.69;;;1.56;82.20
3428;BME280;1727;42.624;23.406;2023-04-06T00:25:13;94607.22;;;1.55;81.15
3428;BME280;1727;42.624;23.406;2023-04-06T00:27:40;94603.88;;;1.53;81.00
3428;BME280;1727;42.624;23.406;2023-04-06T00:30:09;94591.59;;;1.57;81.74
3428;BME280;1727;42.624;23.406;2023-04-06T00:32:36;94603.00;;;1.69;81.01
3428;BME280;1727;42.624;23.406;2023-04-06T00:35:04;94597.34;;;1.78;80.39
3428;BME280;1727;42.624;23.406;2023-04-06T00:37:31;94591.94;;;1.82;79.79
3428;BME280;1727;42.624;23.406;2023-04-06T00:39:58;94593.84;;;1.79;79.36
3428;BME280;1727;42.624;23.406;2023-04-06T00:42:25;94597.66;;;1.88;80.84
3428;BME280;1727;42.624;23.406;2023-04-06T00:44:52;94591.56;;;1.89;80.13
3428;BME280;1727;42.624;23.406;2023-04-06T00:47:21;94593.25;;;1.90;79.88
3428;BME280;1727;42.624;23.406;2023-04-06T00:49:48;94594.72;;;1.94;80.01
3428;BME280;1727;42.624;23.406;2023-04-06T00:52:15;94592.16;;;1.94;79.54
3428;BME280;1727;42.624;23.406;2023-04-06T00:54:42;94584.91;;;1.84;79.96
3428;BME280;1727;42.624;23.406;2023-04-06T00:57:09;94592.50;;;1.88;79.58
3428;BME280;1727;42.624;23.406;2023-04-06T00:59:36;94598.34;;;1.91;79.34
3428;BME280;1727;42.624;23.406;2023-04-06T01:02:03;94595.84;;;1.90;79.63
3428;BME280;1727;42.624;23.406;2023-04-06T01:04:32;94589.22;;;2.00;79.73
3428;BME280;1727;42.624;23.406;2023-04-06T01:06:59;94593.38;;;2.02;78.92
3428;BME280;1727;42.624;23.406;2023-04-06T01:09:27;94582.97;;;2.04;80.35
3428;BME280;1727;42.624;23.406;2023-04-06T01:11:54;94580.03;;;1.94;79.17
3428;BME280;1727;42.624;23.406;2023-04-06T01:14:21;94582.97;;;1.88;79.54
3428;BME280;1727;42.624;23.406;2023-04-06T01:16:48;94579.91;;;1.81;80.17
3428;BME280;1727;42.624;23.406;2023-04-06T01:19:15;94576.72;;;1.92;79.83
3428;BME280;1727;42.624;23.406;2023-04-06T01:21:43;94571.63;;;1.91;79.91
3428;BME280;1727;42.624;23.406;2023-04-06T01:24:11;94571.41;;;1.79;80.26
3428;BME280;1727;42.624;23.406;2023-04-06T01:26:38;94569.22;;;1.88;80.39
3428;BME280;1727;42.624;23.406;2023-04-06T01:29:05;94569.91;;;1.75;80.45
3428;BME280;1727;42.624;23.406;2023-04-06T01:31:32;94566.63;;;1.88;82.00
3428;BME280;1727;42.624;23.406;2023-04-06T01:37:20;94558.88;;;1.72;81.06
3428;BME280;1727;42.624;23.406;2023-04-06T01:39:49;94565.16;;;1.68;80.93
3428;BME280;1727;42.624;23.406;2023-04-06T01:42:16;94559.31;;;1.64;82.61
3428;BME280;1727;42.624;23.406;2023-04-06T01:44:43;94555.81;;;1.65;82.40
3428;BME280;1727;42.624;23.406;2023-04-06T01:47:10;94553.31;;;1.64;82.95
3428;BME280;1727;42.624;23.406;2023-04-06T01:49:37;94549.41;;;1.57;82.24
3428;BME280;1727;42.624;23.406;2023-04-06T01:52:04;94556.63;;;1.66;82.83
3428;BME280;1727;42.624;23.406;2023-04-06T01:54:31;94559.31;;;1.64;81.95
3428;BME280;1727;42.624;23.406;2023-04-06T01:56:59;94558.22;;;1.68;82.01
3428;BME280;1727;42.624;23.406;2023-04-06T01:59:26;94553.97;;;1.67;81.88
3428;BME280;1727;42.624;23.406;2023-04-06T02:01:53;94543.97;;;1.77;81.53
3428;BME280;1727;42.624;23.406;2023-04-06T02:04:20;94547.94;;;1.82;82.02
3428;BME280;1727;42.624;23.406;2023-04-06T02:06:47;94546.28;;;1.81;80.96
3428;BME280;1727;42.624;23.406;2023-04-06T02:09:14;94542.50;;;1.87;80.84
3428;BME280;1727;42.624;23.406;2023-04-06T02:11:41;94544.78;;;1.77;81.61
3428;BME280;1727;42.624;23.406;2023-04-06T02:14:09;94542.97;;;1.79;81.54
3428;BME280;1727;42.624;23.406;2023-04-06T02:16:36;94538.69;;;1.78;81.72
3428;BME280;1727;42.624;23.406;2023-04-06T02:19:02;94543.34;;;1.72;81.41
3428;BME280;1727;42.624;23.406;2023-04-06T02:28:12;94537.53;;;1.68;82.33
3428;BME280;1727;42.624;23.406;2023-04-06T02:30:40;94538.78;;;1.77;82.82
3428;BME280;1727;42.624;23.406;2023-04-06T02:33:07;94538.09;;;1.73;81.67
3428;BME280;1727;42.624;23.406;2023-04-06T02:35:34;94544.88;;;1.76;82.27
3428;BME280;1727;42.624;23.406;2023-04-06T02:38:01;94535.28;;;1.78;82.66
3428;BME280;1727;42.624;23.406;2023-04-06T02:40:27;94540.09;;;1.84;82.33
3428;BME280;1727;42.624;23.406;2023-04-06T02:42:54;94538.34;;;1.84;81.21
3428;BME280;1727;42.624;23.406;2023-04-06T02:45:21;94536.16;;;1.93;81.50
3428;BME280;1727;42.624;23.406;2023-04-06T02:47:49;94541.38;;;2.07;81.99
3428;BME280;1727;42.624;23.406;2023-04-06T02:50:16;94539.63;;;2.07;81.46
3428;BME280;1727;42.624;23.406;2023-04-06T02:52:43;94529.28;;;2.07;81.51
3428;BME280;1727;42.624;23.406;2023-04-06T02:55:10;94533.03;;;2.02;80.66
3428;BME280;1727;42.624;23.406;2023-04-06T02:57:36;94531.63;;;1.96;80.99
3428;BME280;1727;42.624;23.406;2023-04-06T03:00:04;94534.13;;;1.98;81.35
3428;BME280;1727;42.624;23.406;2023-04-06T03:02:32;94528.47;;;1.91;84.12
3428;BME280;1727;42.624;23.406;2023-04-06T03:08:10;94522.00;;;1.84;82.95
3428;BME280;1727;42.624;23.406;2023-04-06T03:10:37;94526.53;;;1.95;81.95
3428;BME280;1727;42.624;23.406;2023-04-06T03:13:03;94522.63;;;2.03;82.00
3428;BME280;1727;42.624;23.406;2023-04-06T03:18:52;94522.09;;;1.82;81.82
3428;BME280;1727;42.624;23.406;2023-04-06T03:21:19;94522.09;;;1.82;82.49
3428;BME280;1727;42.624;23.406;2023-04-06T03:23:47;94519.13;;;1.89;82.68
3428;BME280;1727;42.624;23.406;2023-04-06T03:26:16;94529.56;;;2.03;82.37
3428;BME280;1727;42.624;23.406;2023-04-06T03:35:26;94527.28;;;2.27;81.30
3428;BME280;1727;42.624;23.406;2023-04-06T03:37:52;94529.47;;;2.18;79.81
3428;BME280;1727;42.624;23.406;2023-04-06T03:40:21;94527.38;;;1.95;81.14
3428;BME280;1727;42.624;23.406;2023-04-06T03:42:47;94529.22;;;1.93;82.69
3428;BME280;1727;42.624;23.406;2023-04-06T03:45:14;94528.97;;;1.98;81.60
3428;BME280;1727;42.624;23.406;2023-04-06T03:47:41;94534.00;;;1.85;81.07
3428;BME280;1727;42.624;23.406;2023-04-06T03:50:09;94519.22;;;2.17;84.77
3428;BME280;1727;42.624;23.406;2023-04-06T03:52:35;94520.97;;;2.16;81.18
3428;BME280;1727;42.624;23.406;2023-04-06T03:55:03;94532.16;;;2.17;80.40
3428;BME280;1727;42.624;23.406;2023-04-06T03:57:31;94523.28;;;2.07;81.25
3428;BME280;1727;42.624;23.406;2023-04-06T03:59:58;94521.19;;;1.98;80.72
3428;BME280;1727;42.624;23.406;2023-04-06T04:02:25;94515.53;;;1.91;82.15
3428;BME280;1727;42.624;23.406;2023-04-06T04:04:52;94524.53;;;2.00;84.61
3428;BME280;1727;42.624;23.406;2023-04-06T04:07:19;94535.22;;;1.94;81.09
3428;BME280;1727;42.624;23.406;2023-04-06T04:09:46;94519.63;;;1.95;84.30
3428;BME280;1727;42.624;23.406;2023-04-06T04:12:12;94524.44;;;2.01;83.38
3428;BME280;1727;42.624;23.406;2023-04-06T04:14:42;94526.78;;;2.06;81.22
3428;BME280;1727;42.624;23.406;2023-04-06T04:17:09;94531.78;;;2.09;81.91
3428;BME280;1727;42.624;23.406;2023-04-06T04:19:36;94529.47;;;2.04;82.80
3428;BME280;1727;42.624;23.406;2023-04-06T04:22:03;94524.19;;;2.06;81.62
3428;BME280;1727;42.624;23.406;2023-04-06T04:24:31;94535.84;;;2.13;82.25
3428;BME280;1727;42.624;23.406;2023-04-06T04:26:59;94532.34;;;2.14;81.18
3428;BME280;1727;42.624;23.406;2023-04-06T04:29:27;94531.88;;;2.07;80.36
3428;BME280;1727;42.624;23.406;2023-04-06T04:31:55;94536.41;;;2.18;81.79
3428;BME280;1727;42.624;23.406;2023-04-06T04:34:22;94534.56;;;2.20;81.34
3428;BME280;1727;42.624;23.406;2023-04-06T04:36:50;94547.81;;;2.30;80.42
3428;BME280;1727;42.624;23.406;2023-04-06T04:39:17;94529.94;;;2.25;80.82
3428;BME280;1727;42.624;23.406;2023-04-06T04:41:44;94537.34;;;2.17;79.85
3428;BME280;1727;42.624;23.406;2023-04-06T04:44:11;94523.94;;;2.10;80.53
3428;BME280;1727;42.624;23.406;2023-04-06T04:46:38;94531.16;;;2.20;80.96
3428;BME280;1727;42.624;23.406;2023-04-06T04:49:08;94531.44;;;2.29;81.46
3428;BME280;1727;42.624;23.406;2023-04-06T04:51:34;94533.50;;;2.38;80.33
3428;BME280;1727;42.624;23.406;2023-04-06T04:54:01;94533.22;;;2.43;79.88
3428;BME280;1727;42.624;23.406;2023-04-06T04:56:28;94537.41;;;2.45;79.61
3428;BME280;1727;42.624;23.406;2023-04-06T04:58:55;94525.94;;;2.49;80.35
3428;BME280;1727;42.624;23.406;2023-04-06T05:01:22;94533.50;;;2.53;81.84
3428;BME280;1727;42.624;23.406;2023-04-06T05:03:49;94539.94;;;2.61;82.21
3428;BME280;1727;42.624;23.406;2023-04-06T05:06:17;94537.69;;;2.84;84.05
3428;BME280;1727;42.624;23.406;2023-04-06T05:08:45;94538.19;;;2.90;82.48
3428;BME280;1727;42.624;23.406;2023-04-06T05:11:12;94534.72;;;3.04;80.21
3428;BME280;1727;42.624;23.406;2023-04-06T05:13:39;94533.31;;;3.13;82.15
3428;BME280;1727;42.624;23.406;2023-04-06T05:16:06;94543.09;;;3.50;80.90
3428;BME280;1727;42.624;23.406;2023-04-06T05:18:33;94534.19;;;4.33;78.96
3428;BME280;1727;42.624;23.406;2023-04-06T05:21:00;94535.81;;;4.87;76.92
3428;BME280;1727;42.624;23.406;2023-04-06T05:23:28;94552.44;;;5.10;69.61
3428;BME280;1727;42.624;23.406;2023-04-06T05:25:55;94545.88;;;5.04;72.62
3428;BME280;1727;42.624;23.406;2023-04-06T05:28:22;94550.91;;;4.94;70.75
3428;BME280;1727;42.624;23.406;2023-04-06T05:34:12;94550.16;;;4.80;73.96
3428;BME280;1727;42.624;23.406;2023-04-06T05:36:42;94547.16;;;4.73;75.13
3428;BME280;1727;42.624;23.406;2023-04-06T05:39:10;94546.50;;;4.57;72.44
3428;BME280;1727;42.624;23.406;2023-04-06T05:41:37;94552.31;;;4.35;74.19
3428;BME280;1727;42.624;23.406;2023-04-06T05:44:04;94543.84;;;4.19;75.02
3428;BME280;1727;42.624;23.406;2023-04-06T05:46:31;94543.06;;;4.04;74.73
3428;BME280;1727;42.624;23.406;2023-04-06T05:48:58;94547.81;;;3.85;75.02
3428;BME280;1727;42.624;23.406;2023-04-06T05:51:25;94549.13;;;3.78;75.70
3428;BME280;1727;42.624;23.406;2023-04-06T05:53:52;94543.84;;;3.79;76.31
3428;BME280;1727;42.624;23.406;2023-04-06T05:56:20;94531.69;;;3.80;79.40
3428;BME280;1727;42.624;23.406;2023-04-06T05:58:47;94532.81;;;3.76;76.80
3428;BME280;1727;42.624;23.406;2023-04-06T06:01:13;94533.38;;;3.81;76.70
3428;BME280;1727;42.624;23.406;2023-04-06T06:03:41;94528.47;;;3.76;77.04
3428;BME280;1727;42.624;23.406;2023-04-06T06:06:07;94536.00;;;3.93;77.13
3428;BME280;1727;42.624;23.406;2023-04-06T06:08:34;94530.91;;;3.92;76.28
3428;BME280;1727;42.624;23.406;2023-04-06T06:11:01;94533.09;;;3.98;75.07
3428;BME280;1727;42.624;23.406;2023-04-06T06:13:30;94532.44;;;3.82;74.97
3428;BME280;1727;42.624;23.406;2023-04-06T06:15:57;94528.19;;;3.93;77.37
3428;BME280;1727;42.624;23.406;2023-04-06T06:18:24;94526.53;;;3.92;78.78
3428;BME280;1727;42.624;23.406;2023-04-06T06:20:51;94530.16;;;3.90;76.22
3428;BME280;1727;42.624;23.406;2023-04-06T06:23:17;94529.91;;;4.07;77.10
3428;BME280;1727;42.624;23.406;2023-04-06T06:25:44;94534.81;;;4.12;76.67
3428;BME280;1727;42.624;23.406;2023-04-06T06:28:11;94538.66;;;4.06;77.22
3428;BME280;1727;42.624;23.406;2023-04-06T06:30:39;94528.84;;;3.97;76.38
3428;BME280;1727;42.624;23.406;2023-04-06T06:33:06;94527.34;;;3.80;76.75
3428;BME280;1727;42.624;23.406;2023-04-06T06:35:33;94526.72;;;3.77;77.08
3428;BME280;1727;42.624;23.406;2023-04-06T06:38:00;94530.38;;;3.60;76.98
3428;BME280;1727;42.624;23.406;2023-04-06T06:40:26;94530.88;;;3.52;78.53
3428;BME280;1727;42.624;23.406;2023-04-06T06:42:53;94528.38;;;3.51;78.06
3428;BME280;1727;42.624;23.406;2023-04-06T06:45:20;94535.25;;;3.64;78.08
3428;BME280;1727;42.624;23.406;2023-04-06T06:47:48;94533.09;;;3.98;79.98
3428;BME280;1727;42.624;23.406;2023-04-06T06:50:15;94528.00;;;4.61;83.98
3428;BME280;1727;42.624;23.406;2023-04-06T06:52:42;94534.88;;;4.88;78.39
3428;BME280;1727;42.624;23.406;2023-04-06T06:55:10;94533.94;;;4.89;76.68
3428;BME280;1727;42.624;23.406;2023-04-06T06:57:37;94529.06;;;4.72;74.45
3428;BME280;1727;42.624;23.406;2023-04-06T07:00:05;94529.06;;;4.97;73.50
3428;BME280;1727;42.624;23.406;2023-04-06T07:02:34;94528.81;;;5.13;72.70
3428;BME280;1727;42.624;23.406;2023-04-06T07:05:02;94523.84;;;5.46;71.84
3428;BME280;1727;42.624;23.406;2023-04-06T07:07:29;94526.56;;;5.81;71.07
3428;BME280;1727;42.624;23.406;2023-04-06T07:09:56;94532.28;;;6.10;69.55
3428;BME280;1727;42.624;23.406;2023-04-06T07:12:23;94512.84;;;6.38;68.39
3428;BME280;1727;42.624;23.406;2023-04-06T07:14:50;94512.69;;;6.29;68.27
3428;BME280;1727;42.624;23.406;2023-04-06T07:17:17;94517.50;;;6.46;69.02
3428;BME280;1727;42.624;23.406;2023-04-06T07:19:44;94520.09;;;6.57;73.17
3428;BME280;1727;42.624;23.406;2023-04-06T07:22:12;94518.38;;;6.34;68.23
3428;BME280;1727;42.624;23.406;2023-04-06T07:24:39;94529.31;;;6.39;67.74
3428;BME280;1727;42.624;23.406;2023-04-06T07:27:06;94516.25;;;6.28;67.43
3428;BME280;1727;42.624;23.406;2023-04-06T07:29:33;94524.72;;;6.42;68.27
3428;BME280;1727;42.624;23.406;2023-04-06T07:32:00;94532.06;;;6.48;68.10
3428;BME280;1727;42.624;23.406;2023-04-06T07:34:27;94530.97;;;6.40;67.39
3428;BME280;1727;42.624;23.406;2023-04-06T07:36:54;94528.66;;;6.24;68.05
3428;BME280;1727;42.624;23.406;2023-04-06T07:39:23;94516.50;;;6.01;68.13
3428;BME280;1727;42.624;23.406;2023-04-06T07:41:51;94519.75;;;6.15;68.68
3428;BME280;1727;42.624;23.406;2023-04-06T07:44:18;94513.22;;;6.56;68.52
3428;BME280;1727;42.624;23.406;2023-04-06T07:46:45;94520.41;;;6.76;66.48
3428;BME280;1727;42.624;23.406;2023-04-06T07:49:12;94523.75;;;7.01;67.50
3428;BME280;1727;42.624;23.406;2023-04-06T07:51:39;94523.25;;;7.07;66.51
3428;BME280;1727;42.624;23.406;2023-04-06T07:54:06;94522.09;;;7.33;65.42
3428;BME280;1727;42.624;23.406;2023-04-06T07:56:35;94515.75;;;7.47;63.83
3428;BME280;1727;42.624;23.406;2023-04-06T07:59:02;94523.03;;;7.55;63.24
3428;BME280;1727;42.624;23.406;2023-04-06T08:01:28;94516.19;;;7.86;63.31
3428;BME280;1727;42.624;23.406;2023-04-06T08:03:56;94519.38;;;7.89;66.97
3428;BME280;1727;42.624;23.406;2023-04-06T08:06:24;94518.19;;;7.93;61.74
3428;BME280;1727;42.624;23.406;2023-04-06T08:08:51;94511.69;;;8.20;65.54
3428;BME280;1727;42.624;23.406;2023-04-06T08:11:18;94508.94;;;7.89;62.63
3428;BME280;1727;42.624;23.406;2023-04-06T08:13:46;94518.81;;;7.74;64.20
3428;BME280;1727;42.624;23.406;2023-04-06T08:16:13;94514.91;;;7.69;62.75
3428;BME280;1727;42.624;23.406;2023-04-06T08:18:40;94515.41;;;7.63;65.39
3428;BME280;1727;42.624;23.406;2023-04-06T08:21:07;94513.25;;;7.68;63.26
3428;BME280;1727;42.624;23.406;2023-04-06T08:23:34;94521.81;;;7.59;63.33
3428;BME280;1727;42.624;23.406;2023-04-06T08:26:00;94518.63;;;7.33;63.52
3428;BME280;1727;42.624;23.406;2023-04-06T08:28:27;94521.13;;;7.34;64.17
3428;BME280;1727;42.624;23.406;2023-04-06T08:30:56;94513.53;;;7.20;63.65
3428;BME280;1727;42.624;23.406;2023-04-06T08:33:22;94515.19;;;7.32;65.20
3428;BME280;1727;42.624;23.406;2023-04-06T08:35:49;94514.97;;;7.24;63.14
3428;BME280;1727;42.624;23.406;2023-04-06T08:38:16;94517.94;;;6.97;64.89
3428;BME280;1727;42.624;23.406;2023-04-06T08:40:43;94527.03;;;6.80;65.85
3428;BME280;1727;42.624;23.406;2023-04-06T08:43:14;94519.72;;;7.08;65.36
3428;BME280;1727;42.624;23.406;2023-04-06T08:45:41;94519.91;;;7.50;66.37
3428;BME280;1727;42.624;23.406;2023-04-06T08:48:11;94509.19;;;7.75;63.25
3428;BME280;1727;42.624;23.406;2023-04-06T08:50:39;94523.59;;;8.13;61.54
3428;BME280;1727;42.624;23.406;2023-04-06T08:53:06;94516.78;;;8.53;58.99
3428;BME280;1727;42.624;23.406;2023-04-06T08:55:35;94520.59;;;8.49;60.42
3428;BME280;1727;42.624;23.406;2023-04-06T08:58:06;94507.97;;;8.54;57.49
3428;BME280;1727;42.624;23.406;2023-04-06T09:00:37;94519.25;;;8.55;57.30
3428;BME280;1727;42.624;23.406;2023-04-06T09:03:05;94491.31;;;8.55;63.15
3428;BME280;1727;42.624;23.406;2023-04-06T09:05:34;94507.47;;;8.40;57.65
3428;BME280;1727;42.624;23.406;2023-04-06T09:08:01;94488.44;;;8.58;59.32
3428;BME280;1727;42.624;23.406;2023-04-06T09:10:29;94486.53;;;8.60;57.66
3428;BME280;1727;42.624;23.406;2023-04-06T09:13:05;94501.59;;;8.47;59.29
3428;BME280;1727;42.624;23.406;2023-04-06T09:15:32;94497.38;;;8.77;58.49
3428;BME280;1727;42.624;23.406;2023-04-06T09:17:59;94491.25;;;8.66;57.30
3428;BME280;1727;42.624;23.406;2023-04-06T09:20:26;94483.16;;;8.69;57.47
3428;BME280;1727;42.624;23.406;2023-04-06T09:22:55;94482.25;;;8.80;58.79
3428;BME280;1727;42.624;23.406;2023-04-06T09:25:23;94478.84;;;8.89;58.28
3428;BME280;1727;42.624;23.406;2023-04-06T09:27:59;94483.38;;;8.87;57.50
3428;BME280;1727;42.624;23.406;2023-04-06T09:30:26;94491.00;;;8.69;57.75
3428;BME280;1727;42.624;23.406;2023-04-06T09:32:54;94482.69;;;8.64;57.92
3428;BME280;1727;42.624;23.406;2023-04-06T09:35:22;94491.97;;;8.48;58.55
3428;BME280;1727;42.624;23.406;2023-04-06T09:37:50;94483.81;;;8.41;58.59
3428;BME280;1727;42.624;23.406;2023-04-06T09:40:19;94482.53;;;8.56;59.11
3428;BME280;1727;42.624;23.406;2023-04-06T09:42:48;94485.09;;;8.47;58.26
3428;BME280;1727;42.624;23.406;2023-04-06T09:45:17;94474.00;;;8.22;59.66
3428;BME280;1727;42.624;23.406;2023-04-06T09:47:45;94483.50;;;7.91;60.48
3428;BME280;1727;42.624;23.406;2023-04-06T09:50:13;94482.63;;;7.70;58.97
3428;BME280;1727;42.624;23.406;2023-04-06T09:52:42;94469.84;;;7.44;59.99
3428;BME280;1727;42.624;23.406;2023-04-06T09:55:12;94467.50;;;7.41;61.40
3428;BME280;1727;42.624;23.406;2023-04-06T09:57:50;94476.06;;;7.32;61.35
3428;BME280;1727;42.624;23.406;2023-04-06T10:00:22;94472.97;;;7.27;62.37
3428;BME280;1727;42.624;23.406;2023-04-06T10:02:51;94476.41;;;7.28;60.28
3428;BME280;1727;42.624;23.406;2023-04-06T10:05:30;94482.47;;;7.17;60.50
3428;BME280;1727;42.624;23.406;2023-04-06T10:08:02;94476.19;;;6.97;60.77
3428;BME280;1727;42.624;23.406;2023-04-06T10:10:31;94472.25;;;7.14;60.94
3428;BME280;1727;42.624;23.406;2023-04-06T10:12:59;94464.91;;;7.08;60.75
3428;BME280;1727;42.624;23.406;2023-04-06T10:15:27;94462.78;;;7.02;60.83
3428;BME280;1727;42.624;23.406;2023-04-06T10:17:55;94463.25;;;7.18;63.93
3428;BME280;1727;42.624;23.406;2023-04-06T10:20:25;94466.22;;;7.25;60.65
3428;BME280;1727;42.624;23.406;2023-04-06T10:22:56;94457.03;;;7.41;59.63
3428;BME280;1727;42.624;23.406;2023-04-06T10:25:29;94449.00;;;7.33;60.06
3428;BME280;1727;42.624;23.406;2023-04-06T10:28:01;94451.13;;;7.39;59.38
3428;BME280;1727;42.624;23.406;2023-04-06T10:30:29;94445.22;;;7.26;60.31
3428;BME280;1727;42.624;23.406;2023-04-06T10:32:56;94442.47;;;7.39;61.11
3428;BME280;1727;42.624;23.406;2023-04-06T10:35:23;94430.38;;;7.38;58.13
3428;BME280;1727;42.624;23.406;2023-04-06T10:37:52;94427.41;;;7.31;59.25
3428;BME280;1727;42.624;23.406;2023-04-06T10:40:21;94442.91;;;7.44;60.21
3428;BME280;1727;42.624;23.406;2023-04-06T10:42:48;94444.00;;;7.53;60.32
3428;BME280;1727;42.624;23.406;2023-04-06T10:45:21;94449.09;;;7.54;60.82
3428;BME280;1727;42.624;23.406;2023-04-06T10:47:49;94436.88;;;7.55;61.07
3428;BME280;1727;42.624;23.406;2023-04-06T10:50:16;94431.75;;;7.53;61.09
3428;BME280;1727;42.624;23.406;2023-04-06T10:52:44;94434.53;;;7.72;59.55
3428;BME280;1727;42.624;23.406;2023-04-06T10:55:12;94430.81;;;7.86;58.17
3428;BME280;1727;42.624;23.406;2023-04-06T10:57:39;94446.97;;;7.80;58.79
3428;BME280;1727;42.624;23.406;2023-04-06T11:00:08;94446.25;;;7.78;59.61
3428;BME280;1727;42.624;23.406;2023-04-06T11:02:36;94440.34;;;7.76;58.99
3428;BME280;1727;42.624;23.406;2023-04-06T11:05:04;94441.59;;;7.50;59.77
3428;BME280;1727;42.624;23.406;2023-04-06T11:07:32;94434.13;;;7.45;58.92
3428;BME280;1727;42.624;23.406;2023-04-06T11:09:58;94437.69;;;7.55;60.28
3428;BME280;1727;42.624;23.406;2023-04-06T11:12:27;94442.38;;;7.72;62.26
3428;BME280;1727;42.624;23.406;2023-04-06T11:14:58;94433.69;;;7.72;58.57
3428;BME280;1727;42.624;23.406;2023-04-06T11:17:30;94426.38;;;7.66;60.39
3428;BME280;1727;42.624;23.406;2023-04-06T11:19:59;94432.72;;;7.52;59.30
3428;BME280;1727;42.624;23.406;2023-04-06T11:22:26;94429.75;;;7.45;59.64
3428;BME280;1727;42.624;23.406;2023-04-06T11:25:04;94423.94;;;7.42;63.96
3428;BME280;1727;42.624;23.406;2023-04-06T11:27:31;94427.84;;;7.47;60.61
3428;BME280;1727;42.624;23.406;2023-04-06T11:29:58;94412.06;;;7.49;59.91
3428;BME280;1727;42.624;23.406;2023-04-06T11:32:25;94427.25;;;7.55;61.74
3428;BME280;1727;42.624;23.406;2023-04-06T11:34:52;94423.56;;;7.58;63.98
3428;BME280;1727;42.624;23.406;2023-04-06T11:37:21;94427.59;;;7.51;60.39
3428;BME280;1727;42.624;23.406;2023-04-06T11:39:48;94425.41;;;7.67;60.07
3428;BME280;1727;42.624;23.406;2023-04-06T11:42:23;94430.81;;;7.86;60.69
3428;BME280;1727;42.624;23.406;2023-04-06T11:44:51;94437.13;;;8.04;59.86
3428;BME280;1727;42.624;23.406;2023-04-06T11:47:19;94428.22;;;8.07;58.60
3428;BME280;1727;42.624;23.406;2023-04-06T11:49:47;94434.03;;;7.78;57.75
3428;BME280;1727;42.624;23.406;2023-04-06T11:52:17;94440.13;;;7.68;60.11
3428;BME280;1727;42.624;23.406;2023-04-06T11:54:46;94425.72;;;7.85;69.66
3428;BME280;1727;42.624;23.406;2023-04-06T11:57:13;94436.75;;;7.88;58.56
3428;BME280;1727;42.624;23.406;2023-04-06T11:59:40;94442.50;;;7.71;59.63
3428;BME280;1727;42.624;23.406;2023-04-06T12:02:07;94444.91;;;7.52;58.75
3428;BME280;1727;42.624;23.406;2023-04-06T12:04:34;94448.31;;;7.31;58.93
3428;BME280;1727;42.624;23.406;2023-04-06T12:07:01;94442.84;;;7.12;59.83
3428;BME280;1727;42.624;23.406;2023-04-06T12:09:28;94440.50;;;7.09;60.61
3428;BME280;1727;42.624;23.406;2023-04-06T12:11:56;94452.09;;;7.16;60.72
3428;BME280;1727;42.624;23.406;2023-04-06T12:14:23;94428.50;;;7.18;60.39
3428;BME280;1727;42.624;23.406;2023-04-06T12:16:50;94443.09;;;7.09;59.35
3428;BME280;1727;42.624;23.406;2023-04-06T12:19:17;94455.22;;;6.99;60.77
3428;BME280;1727;42.624;23.406;2023-04-06T12:21:44;94446.44;;;7.00;60.83
3428;BME280;1727;42.624;23.406;2023-04-06T12:24:10;94443.13;;;6.98;61.68
3428;BME280;1727;42.624;23.406;2023-04-06T12:26:37;94444.06;;;7.08;62.62
3428;BME280;1727;42.624;23.406;2023-04-06T12:29:05;94445.34;;;7.13;61.78
3428;BME280;1727;42.624;23.406;2023-04-06T12:31:34;94438.69;;;7.21;61.05
3428;BME280;1727;42.624;23.406;2023-04-06T12:34:02;94442.75;;;7.13;60.20
3428;BME280;1727;42.624;23.406;2023-04-06T12:36:29;94431.25;;;7.05;61.03
3428;BME280;1727;42.624;23.406;2023-04-06T12:38:57;94431.09;;;7.18;61.45
3428;BME280;1727;42.624;23.406;2023-04-06T12:41:26;94428.25;;;7.21;61.35
3428;BME280;1727;42.624;23.406;2023-04-06T12:43:53;94416.88;;;7.22;60.45
3428;BME280;1727;42.624;23.406;2023-04-06T12:46:22;94427.66;;;7.28;60.82
3428;BME280;1727;42.624;23.406;2023-04-06T12:48:51;94426.47;;;7.21;60.52
3428;BME280;1727;42.624;23.406;2023-04-06T12:51:19;94431.09;;;7.18;60.81
3428;BME280;1727;42.624;23.406;2023-04-06T12:53:45;94414.13;;;7.34;63.94
3428;BME280;1727;42.624;23.406;2023-04-06T12:56:15;94427.66;;;7.28;58.75
3428;BME280;1727;42.624;23.406;2023-04-06T12:58:43;94413.22;;;7.13;59.03
3428;BME280;1727;42.624;23.406;2023-04-06T13:01:10;94425.19;;;7.15;61.59
3428;BME280;1727;42.624;23.406;2023-04-06T13:03:40;94416.78;;;7.12;60.69
3428;BME280;1727;42.624;23.406;2023-04-06T13:06:07;94425.22;;;7.04;60.04
3428;BME280;1727;42.624;23.406;2023-04-06T13:08:35;94402.22;;;6.87;59.63
3428;BME280;1727;42.624;23.406;2023-04-06T13:11:02;94415.84;;;6.91;62.04
3428;BME280;1727;42.624;23.406;2023-04-06T13:13:30;94416.44;;;6.94;60.42
3428;BME280;1727;42.624;23.406;2023-04-06T13:16:00;94421.06;;;7.02;61.85
3428;BME280;1727;42.624;23.406;2023-04-06T13:18:27;94415.59;;;7.05;60.27
3428;BME280;1727;42.624;23.406;2023-04-06T13:20:56;94410.13;;;7.08;61.23
3428;BME280;1727;42.624;23.406;2023-04-06T13:23:24;94410.03;;;6.98;60.90
3428;BME280;1727;42.624;23.406;2023-04-06T13:25:57;94412.19;;;6.82;60.52
3428;BME280;1727;42.624;23.406;2023-04-06T13:28:25;94408.63;;;6.72;60.51
3428;BME280;1727;42.624;23.406;2023-04-06T13:30:52;94405.31;;;6.70;61.58
3428;BME280;1727;42.624;23.406;2023-04-06T13:33:19;94408.03;;;6.68;61.30
3428;BME280;1727;42.624;23.406;2023-04-06T13:35:46;94408.97;;;6.78;62.39
3428;BME280;1727;42.624;23.406;2023-04-06T13:38:14;94403.41;;;6.72;61.23
3428;BME280;1727;42.624;23.406;2023-04-06T13:40:42;94413.13;;;6.81;61.09
3428;BME280;1727;42.624;23.406;2023-04-06T13:43:12;94403.53;;;6.81;61.15
3428;BME280;1727;42.624;23.406;2023-04-06T13:45:38;94403.41;;;6.83;62.11
3428;BME280;1727;42.624;23.406;2023-04-06T13:48:05;94406.59;;;6.87;62.78
3428;BME280;1727;42.624;23.406;2023-04-06T13:50:33;94406.13;;;6.93;62.23